Terminal Aerodrome Forecast
Issued by NWS

Current Version | Previous Version | Text Only | Print | Product List | Glossary On
Versions: 1 2 3 4 5 6 7 8 9 10 11 12 13 14
000
FTUS45 KTFX 281120
TAFBZN
TAF
KBZN 281120Z 2812/2912 27009KT P6SM -SHRASN OVC035
      TEMPO 2815/2819 4SM -SHRASN SCT007 OVC020
     FM281900 VRB06KT P6SM -SHRA BKN030
     FM290000 11006KT P6SM BKN035 PROB30 2900/2903 4SM -SHRA SCT015
      OVC025
     FM290300 15006KT P6SM BKN045 PROB30 2903/2909 4SM -SHRASN
      OVC025=

USA.gov is the U.S. government's official web portal to all federal, state and local government web resources and services.